»·PEaware :: ACA781 CYUL-KSFO

ACA781 :: CYUL-KSFO

FLIGHT INFORMATION

Flight Status: Arrived
Operator:
Air Canada
More flights by this operator :: More flights under this callsign
Pilot: Henderson P. (1210)
Aircraft: AIRBUS A320
(A320)
More flights by this aircraft type
Origin: CYUL Montréal-Trudeau
Canada
Destination: KSFO San Francisco Intl
United States
More flights between these airports :: More routes between these airports
Route: +KESKA SAVEX KANUR TUKIR Q806 BOBTA DERLO Q818 FNT MKG BAE DBQ OVR HCT J60 DVV JNC KU54Q OAL INYOE DYAMD5
File this flight plan on PilotEdge
Remarks:
Altitude:
(Current/Filed)
32,000ft
Speed:
(Current/Filed)
462kts
Departed: 26-Jun-19 01:04 PM
Arrived: 26-Jun-19 06:48 PM
Distance/Time
Traveled:
2200nm/5:44
Distance/Time
To Go:
Arrived

Flight Plot

Page will automatically refresh every two minutes.

Flight plan parsing failed; only flown route is shown


Map Options




Map Legend


Flown Route
Filed Route
Departure Airport
Arrival Airport
Navaid (VOR, NDB)
Fix

Horizontal Profiles

Position Reports

Time Latitude Longitude Heading Altitude Ground
Speed
26-Jun-19 11:39 45.456909 -73.753933 117 132ft 0kts
26-Jun-19 11:40 45.456909 -73.753933 117 132ft 0kts
26-Jun-19 11:41 45.456909 -73.753933 117 132ft 0kts
26-Jun-19 11:42 45.456909 -73.753933 117 132ft 0kts
26-Jun-19 11:43 45.456909 -73.753933 117 132ft 0kts
26-Jun-19 11:44 45.456909 -73.753933 117 132ft 0kts
26-Jun-19 11:45 45.456909 -73.753933 117 132ft 0kts
26-Jun-19 11:46 45.456909 -73.753933 117 132ft 0kts
26-Jun-19 11:47 45.456909 -73.753933 117 132ft 0kts
26-Jun-19 11:48 45.456909 -73.753933 117 132ft 0kts
26-Jun-19 11:49 45.456909 -73.753933 117 132ft 0kts
26-Jun-19 11:50 45.456909 -73.753933 117 132ft 0kts
26-Jun-19 11:52 45.456909 -73.753933 117 132ft 0kts
26-Jun-19 11:53 45.456909 -73.753933 117 132ft 0kts
26-Jun-19 11:54 45.456909 -73.753933 117 132ft 0kts
26-Jun-19 11:55 45.456909 -73.753933 117 132ft 0kts
26-Jun-19 11:56 45.456909 -73.753933 117 132ft 0kts
26-Jun-19 11:57 45.456909 -73.753933 117 132ft 0kts
26-Jun-19 11:58 45.456909 -73.753933 117 132ft 0kts
26-Jun-19 11:59 45.456909 -73.753933 117 132ft 0kts
26-Jun-19 12:00 45.456909 -73.753933 117 132ft 0kts
26-Jun-19 12:01 45.456909 -73.753933 117 132ft 0kts
26-Jun-19 12:02 45.456909 -73.753933 117 132ft 0kts
26-Jun-19 12:03 45.456909 -73.753933 117 132ft 0kts
26-Jun-19 12:04 45.456909 -73.753933 117 132ft 0kts
26-Jun-19 12:05 45.456909 -73.753933 117 132ft 0kts
26-Jun-19 12:06 45.456909 -73.753933 117 132ft 0kts
26-Jun-19 12:07 45.456909 -73.753933 117 132ft 0kts
26-Jun-19 12:08 45.456909 -73.753933 117 132ft 0kts
26-Jun-19 12:09 45.456909 -73.753933 117 132ft 0kts
26-Jun-19 12:10 45.456909 -73.753933 117 132ft 0kts
26-Jun-19 12:10 45.456909 -73.753933 117 132ft 0kts
26-Jun-19 12:11 45.456909 -73.753933 117 132ft 0kts
26-Jun-19 12:13 45.456909 -73.753933 117 132ft 0kts
26-Jun-19 12:13 45.456909 -73.753933 117 132ft 0kts
26-Jun-19 12:14 45.456909 -73.753933 117 132ft 0kts
26-Jun-19 12:16 45.456909 -73.753933 117 132ft 0kts
26-Jun-19 12:16 45.456909 -73.753933 117 132ft 0kts
26-Jun-19 12:17 45.456909 -73.753933 117 132ft 0kts
26-Jun-19 12:18 45.456909 -73.753933 117 132ft 0kts
26-Jun-19 12:19 45.456909 -73.753933 117 132ft 0kts
26-Jun-19 12:20 45.456909 -73.753933 117 132ft 0kts
26-Jun-19 12:21 45.456909 -73.753933 117 132ft 0kts
26-Jun-19 12:22 45.456909 -73.753933 117 132ft 0kts
26-Jun-19 12:23 45.456909 -73.753933 117 132ft 0kts
26-Jun-19 12:24 45.456909 -73.753933 117 132ft 0kts
26-Jun-19 12:25 45.456909 -73.753933 117 132ft 0kts
26-Jun-19 12:26 45.456909 -73.753933 117 132ft 0kts
26-Jun-19 12:27 45.456909 -73.753933 117 132ft 0kts
26-Jun-19 12:28 45.456909 -73.753933 117 132ft 0kts
26-Jun-19 12:29 45.456909 -73.753933 117 132ft 0kts
26-Jun-19 12:30 45.456909 -73.753933 117 132ft 0kts
26-Jun-19 12:31 45.456909 -73.753933 117 132ft 0kts
26-Jun-19 12:32 45.456909 -73.753933 117 132ft 0kts
26-Jun-19 12:33 45.456909 -73.753933 117 132ft 0kts
26-Jun-19 12:34 45.456909 -73.753933 117 132ft 0kts
26-Jun-19 12:35 45.456909 -73.753933 117 132ft 0kts
26-Jun-19 12:36 45.456909 -73.753933 117 132ft 0kts
26-Jun-19 12:37 45.456909 -73.753933 117 132ft 0kts
26-Jun-19 12:38 45.456909 -73.753933 117 132ft 0kts
26-Jun-19 12:39 45.456909 -73.753933 117 132ft 0kts
26-Jun-19 12:40 45.456909 -73.753933 117 132ft 0kts
26-Jun-19 12:41 45.456909 -73.753933 117 132ft 0kts
26-Jun-19 12:42 45.456909 -73.753933 117 132ft 0kts
26-Jun-19 12:43 45.456909 -73.753933 117 132ft 0kts
26-Jun-19 12:44 45.456909 -73.753933 117 132ft 0kts
26-Jun-19 12:45 45.456909 -73.753933 117 132ft 0kts
26-Jun-19 12:46 45.456909 -73.753933 117 132ft 0kts
26-Jun-19 12:47 45.456909 -73.753933 117 132ft 0kts
26-Jun-19 12:48 45.456909 -73.753933 117 132ft 0kts
26-Jun-19 12:49 45.456909 -73.753933 117 132ft 0kts
26-Jun-19 12:50 45.457163 -73.754622 117 132ft 4kts
26-Jun-19 12:51 45.457287 -73.754961 117 132ft 0kts
26-Jun-19 12:52 45.457287 -73.754960 117 132ft 0kts
26-Jun-19 12:53 45.456812 -73.754939 207 132ft 5kts
26-Jun-19 12:54 45.456611 -73.757176 351 132ft 10kts
26-Jun-19 12:55 45.459598 -73.759517 356 132ft 13kts
26-Jun-19 12:56 45.460597 -73.755333 87 132ft 16kts
26-Jun-19 12:57 45.461459 -73.750381 87 132ft 15kts
26-Jun-19 12:58 45.461265 -73.743573 87 132ft 18kts
26-Jun-19 12:59 45.463884 -73.737225 41 132ft 25kts
26-Jun-19 13:00 45.468871 -73.730674 42 132ft 26kts
26-Jun-19 13:01 45.474348 -73.723513 44 132ft 26kts
26-Jun-19 13:02 45.477728 -73.717341 134 132ft 15kts
26-Jun-19 13:03 45.461999 -73.735686 220 157ft 174kts
26-Jun-19 13:04 45.428081 -73.781085 219 2482ft 164kts
26-Jun-19 13:05 45.392270 -73.828357 221 3898ft 198kts
26-Jun-19 13:06 45.372102 -73.909183 274 5402ft 266kts
26-Jun-19 13:07 45.384119 -74.015759 275 8190ft 277kts
26-Jun-19 13:08 45.402381 -74.124113 301 10491ft 307kts
26-Jun-19 13:09 45.472247 -74.217064 315 11695ft 367kts
26-Jun-19 13:10 45.527293 -74.332589 269 13881ft 361kts
26-Jun-19 13:11 45.511123 -74.474915 257 15875ft 369kts
26-Jun-19 13:12 45.491278 -74.620922 257 17703ft 378kts
26-Jun-19 13:13 45.470365 -74.769189 257 19362ft 387kts
26-Jun-19 13:14 45.448855 -74.921122 257 20880ft 394kts
26-Jun-19 13:15 45.426829 -75.075024 257 22253ft 401kts
26-Jun-19 13:16 45.403990 -75.231526 257 23507ft 407kts
26-Jun-19 13:17 45.380689 -75.390086 257 24647ft 412kts
26-Jun-19 13:18 45.356800 -75.551114 256 25712ft 417kts
26-Jun-19 13:19 45.332443 -75.713228 256 26686ft 422kts
26-Jun-19 13:20 45.307609 -75.877316 256 27552ft 426kts
26-Jun-19 13:21 45.282454 -76.041509 255 28629ft 423kts
26-Jun-19 13:22 45.257282 -76.204031 254 29741ft 419kts
26-Jun-19 13:23 45.208209 -76.351172 239 30729ft 413kts
26-Jun-19 13:24 45.151989 -76.492929 240 31607ft 411kts
26-Jun-19 13:25 45.096137 -76.633898 239 31999ft 411kts
26-Jun-19 13:26 45.039875 -76.775350 239 31997ft 412kts
26-Jun-19 13:27 44.983581 -76.916131 239 32005ft 412kts
26-Jun-19 13:28 44.926870 -77.057236 239 32010ft 412kts
26-Jun-19 13:29 44.870294 -77.197214 239 32036ft 410kts
26-Jun-19 13:30 44.813204 -77.337792 239 32002ft 414kts
26-Jun-19 13:31 44.755624 -77.478882 239 32059ft 410kts
26-Jun-19 13:32 44.699249 -77.616458 239 32005ft 404kts
26-Jun-19 13:33 44.642961 -77.752991 239 31979ft 403kts
26-Jun-19 13:34 44.586397 -77.889789 239 31979ft 406kts
26-Jun-19 13:35 44.529396 -78.026903 239 32023ft 408kts
26-Jun-19 13:36 44.472122 -78.164134 239 32075ft 408kts
26-Jun-19 13:37 44.414713 -78.300961 239 32055ft 407kts
26-Jun-19 13:38 44.357197 -78.437427 239 31989ft 408kts
26-Jun-19 13:39 44.299169 -78.574485 239 31988ft 410kts
26-Jun-19 13:40 44.240884 -78.711375 239 32033ft 411kts
26-Jun-19 13:41 44.182173 -78.848662 240 32025ft 413kts
26-Jun-19 13:42 44.122303 -78.985549 239 31996ft 415kts
26-Jun-19 13:43 44.060259 -79.122191 239 32007ft 417kts
26-Jun-19 13:44 44.005344 -79.242901 239 32004ft 419kts
26-Jun-19 13:45 43.942905 -79.379402 240 32093ft 417kts
26-Jun-19 13:46 43.880618 -79.515002 240 32075ft 416kts
26-Jun-19 13:47 43.818044 -79.650568 240 32019ft 417kts
26-Jun-19 13:48 43.751188 -79.782594 238 32018ft 420kts
26-Jun-19 13:49 43.683621 -79.914797 238 32050ft 422kts
26-Jun-19 13:50 43.615599 -80.047175 238 32126ft 421kts
26-Jun-19 13:51 43.547540 -80.179089 238 32059ft 422kts
26-Jun-19 13:52 43.479403 -80.310516 238 32058ft 422kts
26-Jun-19 13:53 43.410902 -80.442102 238 32093ft 422kts
26-Jun-19 13:54 43.342568 -80.572852 238 32114ft 422kts
26-Jun-19 13:55 43.273652 -80.703981 239 32076ft 423kts
26-Jun-19 13:56 43.214510 -80.816104 239 32096ft 423kts
26-Jun-19 13:57 43.144050 -80.946032 238 32054ft 425kts
26-Jun-19 13:58 43.071357 -81.073856 237 32015ft 427kts
26-Jun-19 13:59 42.996010 -81.200298 236 31977ft 429kts
26-Jun-19 14:00 42.918345 -81.324755 235 31941ft 431kts
26-Jun-19 14:01 42.838450 -81.447100 233 31904ft 433kts
26-Jun-19 14:02 42.756288 -81.567408 232 31868ft 435kts
26-Jun-19 14:03 42.680847 -81.693056 246 32069ft 421kts
26-Jun-19 14:05 42.675189 -81.843279 284 32079ft 405kts
26-Jun-19 14:06 42.700552 -81.992791 282 32154ft 406kts
26-Jun-19 14:07 42.724119 -82.142151 283 32145ft 403kts
26-Jun-19 14:08 42.747659 -82.291024 283 32062ft 402kts
26-Jun-19 14:09 42.770995 -82.439805 283 32069ft 402kts
26-Jun-19 14:10 42.794222 -82.589594 283 32075ft 405kts
26-Jun-19 14:11 42.817336 -82.739885 283 32149ft 405kts
26-Jun-19 14:12 42.840187 -82.889765 283 32167ft 403kts
26-Jun-19 14:13 42.862746 -83.039155 283 32144ft 402kts
26-Jun-19 14:14 42.885160 -83.189162 283 32084ft 403kts
26-Jun-19 14:15 42.907349 -83.338848 283 32100ft 403kts
26-Jun-19 14:16 42.929330 -83.488716 283 32164ft 402kts
26-Jun-19 14:17 42.951118 -83.638416 283 32168ft 402kts
26-Jun-19 14:18 42.970997 -83.788841 280 32174ft 403kts
26-Jun-19 14:19 42.985629 -83.940780 280 32179ft 403kts
26-Jun-19 14:20 43.000213 -84.092016 280 32163ft 401kts
26-Jun-19 14:21 43.014684 -84.244647 280 32149ft 404kts
26-Jun-19 14:21 43.026558 -84.371285 279 32148ft 404kts
26-Jun-19 14:23 43.042912 -84.548851 279 32155ft 404kts
26-Jun-19 14:24 43.056749 -84.701479 279 32121ft 404kts
26-Jun-19 14:24 43.068138 -84.828535 279 32128ft 404kts
26-Jun-19 14:26 43.083886 -85.007278 279 32124ft 405kts
26-Jun-19 14:26 43.094958 -85.135019 278 32132ft 406kts
26-Jun-19 14:27 43.108091 -85.288636 278 32145ft 406kts
26-Jun-19 14:29 43.123165 -85.468129 278 32196ft 406kts
26-Jun-19 14:29 43.133743 -85.596333 278 32157ft 406kts
26-Jun-19 14:30 43.146232 -85.749678 278 32139ft 406kts
26-Jun-19 14:31 43.158508 -85.903677 277 32143ft 406kts
26-Jun-19 14:32 43.169139 -86.057707 272 32129ft 408kts
26-Jun-19 14:33 43.166554 -86.213690 270 32139ft 409kts
26-Jun-19 14:34 43.164298 -86.369563 270 32174ft 410kts
26-Jun-19 14:35 43.161576 -86.525867 270 32143ft 410kts
26-Jun-19 14:36 43.158703 -86.681750 270 32159ft 410kts
26-Jun-19 14:37 43.155599 -86.838814 270 32131ft 411kts
26-Jun-19 14:38 43.152259 -86.995385 270 32111ft 412kts
26-Jun-19 14:39 43.148733 -87.152352 270 32158ft 412kts
26-Jun-19 14:40 43.144982 -87.308964 270 32171ft 412kts
26-Jun-19 14:41 43.140999 -87.465853 269 32152ft 412kts
26-Jun-19 14:42 43.136860 -87.622211 269 32132ft 412kts
26-Jun-19 14:43 43.132444 -87.778844 269 32130ft 412kts
26-Jun-19 14:44 43.127846 -87.935448 269 32139ft 411kts
26-Jun-19 14:45 43.123047 -88.092056 269 32106ft 412kts
26-Jun-19 14:46 43.117903 -88.249363 268 32117ft 414kts
26-Jun-19 14:47 43.084304 -88.401162 251 32132ft 422kts
26-Jun-19 14:48 43.041615 -88.550253 252 32167ft 421kts
26-Jun-19 14:49 42.999074 -88.699490 252 32105ft 422kts
26-Jun-19 14:50 42.956287 -88.848898 252 32116ft 422kts
26-Jun-19 14:51 42.913223 -88.998097 251 32080ft 423kts
26-Jun-19 14:52 42.869981 -89.147141 251 32093ft 424kts
26-Jun-19 14:53 42.826374 -89.296545 251 32131ft 424kts
26-Jun-19 14:54 42.782485 -89.446134 251 32174ft 424kts
26-Jun-19 14:55 42.738533 -89.594894 251 32106ft 425kts
26-Jun-19 14:56 42.694173 -89.744259 250 32095ft 426kts
26-Jun-19 14:57 42.649612 -89.893404 250 32140ft 427kts
26-Jun-19 14:58 42.604674 -90.042986 250 32175ft 427kts
26-Jun-19 14:59 42.559597 -90.192138 250 32175ft 427kts
26-Jun-19 15:00 42.514194 -90.341515 250 32166ft 427kts
26-Jun-19 15:01 42.468862 -90.489913 250 32166ft 427kts
26-Jun-19 15:02 42.423156 -90.638550 249 32176ft 426kts
26-Jun-19 15:03 42.383403 -90.789391 255 32157ft 424kts
26-Jun-19 15:04 42.350092 -90.942214 255 32150ft 424kts
26-Jun-19 15:05 42.316167 -91.094517 255 32147ft 423kts
26-Jun-19 15:06 42.282078 -91.246630 254 32144ft 423kts
26-Jun-19 15:07 42.247894 -91.398240 254 32115ft 422kts
26-Jun-19 15:08 42.213309 -91.550473 254 32053ft 423kts
26-Jun-19 15:09 42.178669 -91.701912 253 32069ft 423kts
26-Jun-19 15:10 42.143854 -91.853194 253 32118ft 422kts
26-Jun-19 15:11 42.108789 -92.004363 253 32142ft 422kts
26-Jun-19 15:12 42.073518 -92.155560 253 32140ft 422kts
26-Jun-19 15:13 42.038192 -92.305996 253 32139ft 422kts
26-Jun-19 15:14 42.002513 -92.456747 253 32139ft 422kts
26-Jun-19 15:15 41.966681 -92.607196 253 32073ft 424kts
26-Jun-19 15:16 41.930493 -92.758206 253 32053ft 426kts
26-Jun-19 15:17 41.893872 -92.910033 252 32051ft 429kts
26-Jun-19 15:18 41.856751 -93.063009 252 32066ft 431kts
26-Jun-19 15:19 41.819418 -93.215735 252 32132ft 432kts
26-Jun-19 15:20 41.781716 -93.368802 252 32111ft 432kts
26-Jun-19 15:21 41.743753 -93.522185 252 32098ft 433kts
26-Jun-19 15:22 41.705606 -93.675118 252 32096ft 433kts
26-Jun-19 15:23 41.667323 -93.827741 252 32104ft 433kts
26-Jun-19 15:24 41.628769 -93.980237 252 32111ft 433kts
26-Jun-19 15:25 41.590088 -94.132473 252 32111ft 433kts
26-Jun-19 15:26 41.551033 -94.285181 252 32056ft 434kts
26-Jun-19 15:27 41.511792 -94.437602 252 32055ft 434kts
26-Jun-19 15:28 41.472434 -94.589448 251 32103ft 434kts
26-Jun-19 15:29 41.432762 -94.741725 251 32102ft 435kts
26-Jun-19 15:30 41.392790 -94.893891 251 32115ft 435kts
26-Jun-19 15:31 41.352777 -95.045647 251 32123ft 435kts
26-Jun-19 15:32 41.312491 -95.197148 250 32125ft 434kts
26-Jun-19 15:33 41.272055 -95.348490 250 32083ft 434kts
26-Jun-19 15:34 41.231294 -95.499974 250 32024ft 435kts
26-Jun-19 15:35 41.190426 -95.651213 250 32024ft 435kts
26-Jun-19 15:36 41.158465 -95.805850 261 32026ft 435kts
26-Jun-19 15:37 41.141175 -95.964799 260 32058ft 435kts
26-Jun-19 15:38 41.122399 -96.123386 260 32085ft 435kts
26-Jun-19 15:39 41.103681 -96.282497 260 32041ft 436kts
26-Jun-19 15:40 41.084778 -96.440956 260 32042ft 436kts
26-Jun-19 15:41 41.065559 -96.599894 260 32022ft 437kts
26-Jun-19 15:42 41.046114 -96.758816 260 32052ft 437kts
26-Jun-19 15:43 41.026419 -96.918055 260 32040ft 438kts
26-Jun-19 15:44 41.006535 -97.076768 260 32055ft 438kts
26-Jun-19 15:45 40.986429 -97.235631 260 32075ft 437kts
26-Jun-19 15:46 40.966022 -97.394972 260 32046ft 438kts
26-Jun-19 15:47 40.945416 -97.553973 260 32057ft 438kts
26-Jun-19 15:48 40.924588 -97.713150 260 32069ft 438kts
26-Jun-19 15:49 40.903611 -97.871453 260 32081ft 438kts
26-Jun-19 15:50 40.882343 -98.030259 260 32070ft 439kts
26-Jun-19 15:51 40.860874 -98.188669 260 32103ft 437kts
26-Jun-19 15:52 40.839220 -98.346937 260 32061ft 437kts
26-Jun-19 15:53 40.817413 -98.504850 260 32055ft 436kts
26-Jun-19 15:54 40.795366 -98.662339 259 32047ft 436kts
26-Jun-19 15:55 40.773243 -98.819342 259 32554ft 435kts
26-Jun-19 15:56 40.750895 -98.975688 260 33608ft 432kts
26-Jun-19 15:57 40.728449 -99.131282 260 34537ft 429kts
26-Jun-19 15:58 40.706105 -99.285333 260 35314ft 427kts
26-Jun-19 15:59 40.683573 -99.438462 259 35984ft 425kts
26-Jun-19 16:00 40.660950 -99.590972 260 36050ft 424kts
26-Jun-19 16:01 40.638143 -99.743420 259 36042ft 422kts
26-Jun-19 16:02 40.615179 -99.895136 259 36075ft 422kts
26-Jun-19 16:03 40.592130 -100.046243 259 36061ft 421kts
26-Jun-19 16:04 40.568776 -100.197755 259 35979ft 422kts
26-Jun-19 16:05 40.545260 -100.349122 259 35969ft 424kts
26-Jun-19 16:06 40.521380 -100.501122 259 36057ft 424kts
26-Jun-19 16:07 40.497348 -100.653064 259 36051ft 425kts
26-Jun-19 16:08 40.473061 -100.804965 259 36046ft 426kts
26-Jun-19 16:09 40.449342 -100.957491 261 35966ft 426kts
26-Jun-19 16:10 40.428771 -101.111064 261 35963ft 428kts
26-Jun-19 16:11 40.407648 -101.265305 261 36030ft 429kts
26-Jun-19 16:12 40.386375 -101.419922 261 35998ft 432kts
26-Jun-19 16:14 40.364699 -101.575164 261 35993ft 432kts
26-Jun-19 16:15 40.342874 -101.730422 261 35971ft 434kts
26-Jun-19 16:16 40.320767 -101.885957 261 36000ft 434kts
26-Jun-19 16:17 40.298436 -102.041262 261 36040ft 434kts
26-Jun-19 16:18 40.275886 -102.196663 261 36057ft 435kts
26-Jun-19 16:19 40.253129 -102.352150 261 36052ft 434kts
26-Jun-19 16:20 40.230169 -102.507123 261 36018ft 433kts
26-Jun-19 16:21 40.207100 -102.662061 260 36047ft 432kts
26-Jun-19 16:22 40.183823 -102.816205 260 36025ft 432kts
26-Jun-19 16:23 40.160391 -102.970259 259 36029ft 431kts
26-Jun-19 16:24 40.136805 -103.123626 259 36083ft 429kts
26-Jun-19 16:25 40.113174 -103.276079 259 36100ft 428kts
26-Jun-19 16:26 40.089457 -103.427788 259 36106ft 426kts
26-Jun-19 16:27 40.065548 -103.579082 258 36067ft 425kts
26-Jun-19 16:28 40.041433 -103.730280 258 36039ft 423kts
26-Jun-19 16:29 40.017321 -103.880471 258 36050ft 422kts
26-Jun-19 16:30 39.993025 -104.030160 258 36055ft 422kts
26-Jun-19 16:31 39.972372 -104.156566 258 36073ft 422kts
26-Jun-19 16:31 39.951862 -104.281103 258 36103ft 422kts
26-Jun-19 16:33 39.926489 -104.433911 257 36153ft 422kts
26-Jun-19 16:34 39.901617 -104.583051 258 36149ft 422kts
26-Jun-19 16:34 39.879897 -104.707391 256 36129ft 421kts
26-Jun-19 16:35 39.852725 -104.855406 257 36067ft 420kts
26-Jun-19 16:37 39.821188 -105.027591 256 36100ft 420kts
26-Jun-19 16:37 39.798516 -105.150444 256 36173ft 419kts
26-Jun-19 16:38 39.771095 -105.297877 256 36181ft 418kts
26-Jun-19 16:40 39.739095 -105.468604 256 36353ft 416kts
26-Jun-19 16:40 39.716056 -105.590263 256 36509ft 416kts
26-Jun-19 16:41 39.688285 -105.736538 255 36620ft 417kts
26-Jun-19 16:42 39.660296 -105.882620 255 36683ft 418kts
26-Jun-19 16:43 39.632106 -106.028692 255 36663ft 416kts
26-Jun-19 16:44 39.603824 -106.174070 255 36581ft 415kts
26-Jun-19 16:45 39.578391 -106.303896 255 36560ft 416kts
26-Jun-19 16:46 39.551532 -106.440396 255 36557ft 417kts
26-Jun-19 16:47 39.525212 -106.574382 254 36419ft 417kts
26-Jun-19 16:48 39.495993 -106.719392 255 36319ft 415kts
26-Jun-19 16:49 39.466959 -106.863686 255 36235ft 413kts
26-Jun-19 16:50 39.437949 -107.007140 254 36273ft 413kts
26-Jun-19 16:51 39.408618 -107.150917 254 36367ft 414kts
26-Jun-19 16:52 39.378999 -107.295190 254 36481ft 415kts
26-Jun-19 16:53 39.349166 -107.439579 254 36548ft 417kts
26-Jun-19 16:54 39.318916 -107.584788 254 36455ft 420kts
26-Jun-19 16:55 39.288401 -107.730359 254 36339ft 419kts
26-Jun-19 16:56 39.257826 -107.875480 254 36196ft 418kts
26-Jun-19 16:57 39.227319 -108.019116 253 36117ft 413kts
26-Jun-19 16:58 39.196836 -108.161573 253 36045ft 412kts
26-Jun-19 16:59 39.166195 -108.303956 253 36030ft 415kts
26-Jun-19 17:00 39.139581 -108.426849 253 36018ft 419kts
26-Jun-19 17:01 39.107990 -108.571827 253 36107ft 419kts
26-Jun-19 17:02 39.076355 -108.716082 253 36106ft 418kts
26-Jun-19 17:03 39.055564 -108.862905 265 36059ft 419kts
26-Jun-19 17:04 39.049847 -109.012892 264 36023ft 419kts
26-Jun-19 17:05 39.042575 -109.162205 264 36054ft 419kts
26-Jun-19 17:06 39.035469 -109.311796 264 36093ft 419kts
26-Jun-19 17:07 39.028088 -109.461335 264 36081ft 419kts
26-Jun-19 17:08 39.020507 -109.611089 264 36065ft 419kts
26-Jun-19 17:09 39.012800 -109.760158 264 36044ft 418kts
26-Jun-19 17:10 39.004883 -109.909450 264 35997ft 418kts
26-Jun-19 17:11 38.994627 -110.058349 260 36002ft 417kts
26-Jun-19 17:12 38.980448 -110.205792 261 36031ft 416kts
26-Jun-19 17:13 38.966281 -110.353403 260 36034ft 416kts
26-Jun-19 17:14 38.952012 -110.500252 260 36094ft 415kts
26-Jun-19 17:15 38.937426 -110.647665 260 36102ft 415kts
26-Jun-19 17:16 38.922750 -110.794507 260 36107ft 415kts
26-Jun-19 17:17 38.907851 -110.941355 260 36113ft 414kts
26-Jun-19 17:18 38.892863 -111.087616 260 36065ft 414kts
26-Jun-19 17:19 38.877623 -111.234242 260 36080ft 413kts
26-Jun-19 17:20 38.862277 -111.380076 259 36059ft 413kts
26-Jun-19 17:21 38.846753 -111.525937 259 36069ft 413kts
26-Jun-19 17:22 38.830995 -111.672104 259 36121ft 412kts
26-Jun-19 17:23 38.815151 -111.817451 259 36135ft 412kts
26-Jun-19 17:24 38.799094 -111.962990 259 36117ft 412kts
26-Jun-19 17:25 38.782883 -112.108318 259 36065ft 411kts
26-Jun-19 17:26 38.766487 -112.253412 259 36023ft 410kts
26-Jun-19 17:27 38.749927 -112.398322 259 36028ft 411kts
26-Jun-19 17:28 38.733179 -112.543213 258 36086ft 411kts
26-Jun-19 17:29 38.716236 -112.688590 258 36095ft 412kts
26-Jun-19 17:30 38.699125 -112.833392 258 36090ft 411kts
26-Jun-19 17:31 38.681825 -112.978287 258 36059ft 411kts
26-Jun-19 17:32 38.664384 -113.122765 258 36048ft 411kts
26-Jun-19 17:33 38.646750 -113.267444 258 36039ft 412kts
26-Jun-19 17:34 38.628957 -113.411850 258 36026ft 412kts
26-Jun-19 17:35 38.610880 -113.556836 258 36030ft 412kts
26-Jun-19 17:36 38.592687 -113.701588 258 36051ft 412kts
26-Jun-19 17:37 38.574215 -113.846469 258 36076ft 412kts
26-Jun-19 17:38 38.555682 -113.990932 258 36086ft 412kts
26-Jun-19 17:39 38.536892 -114.135580 257 36079ft 411kts
26-Jun-19 17:40 38.518011 -114.279724 257 36034ft 412kts
26-Jun-19 17:41 38.498929 -114.423976 257 36021ft 412kts
26-Jun-19 17:42 38.479752 -114.567691 257 36033ft 411kts
26-Jun-19 17:43 38.460298 -114.711691 257 36065ft 411kts
26-Jun-19 17:44 38.440741 -114.855493 257 36036ft 411kts
26-Jun-19 17:45 38.421062 -114.998511 257 36025ft 410kts
26-Jun-19 17:46 38.401140 -115.141870 256 35971ft 410kts
26-Jun-19 17:47 38.381039 -115.285404 256 35974ft 412kts
26-Jun-19 17:48 38.360738 -115.428812 256 36054ft 411kts
26-Jun-19 17:49 38.340256 -115.572522 256 36058ft 411kts
26-Jun-19 17:50 38.319654 -115.715538 256 36037ft 411kts
26-Jun-19 17:51 38.298886 -115.858764 256 36013ft 411kts
26-Jun-19 17:52 38.277980 -116.001370 256 36012ft 411kts
26-Jun-19 17:53 38.256766 -116.144574 256 36025ft 411kts
26-Jun-19 17:54 38.235508 -116.287151 256 36040ft 411kts
26-Jun-19 17:55 38.214010 -116.430150 256 36044ft 410kts
26-Jun-19 17:56 38.192378 -116.572454 255 36026ft 410kts
26-Jun-19 17:57 38.170656 -116.714316 256 35993ft 405kts
26-Jun-19 17:58 38.149556 -116.851169 256 36012ft 392kts
26-Jun-19 17:59 38.128420 -116.986935 256 36016ft 391kts
26-Jun-19 18:00 38.107173 -117.122502 256 36009ft 391kts
26-Jun-19 18:01 38.085772 -117.257760 256 36025ft 390kts
26-Jun-19 18:02 38.064326 -117.392601 256 36056ft 389kts
26-Jun-19 18:03 38.042632 -117.527515 256 35995ft 390kts
26-Jun-19 18:04 38.020845 -117.662318 255 36021ft 388kts
26-Jun-19 18:05 38.000318 -117.796710 259 35973ft 390kts
26-Jun-19 18:06 37.986281 -117.933140 259 35953ft 390kts
26-Jun-19 18:07 37.971721 -118.069617 259 35959ft 390kts
26-Jun-19 18:08 37.957170 -118.205638 259 35981ft 390kts
26-Jun-19 18:09 37.942408 -118.341956 259 35996ft 390kts
26-Jun-19 18:10 37.927540 -118.477878 259 36019ft 390kts
26-Jun-19 18:11 37.912501 -118.613611 259 36043ft 389kts
26-Jun-19 18:12 37.897341 -118.749260 259 36070ft 387kts
26-Jun-19 18:13 37.882140 -118.883590 258 36105ft 381kts
26-Jun-19 18:14 37.866909 -119.016988 258 36140ft 387kts
26-Jun-19 18:15 37.851316 -119.151991 258 36146ft 386kts
26-Jun-19 18:16 37.835671 -119.286171 258 36161ft 385kts
26-Jun-19 18:17 37.819897 -119.420008 258 36148ft 384kts
26-Jun-19 18:18 37.804174 -119.552469 258 36073ft 383kts
26-Jun-19 18:19 37.788259 -119.684858 258 36029ft 378kts
26-Jun-19 18:20 37.772367 -119.815684 257 36059ft 379kts
26-Jun-19 18:21 37.756167 -119.948069 258 36047ft 382kts
26-Jun-19 18:22 37.739803 -120.080712 257 35989ft 379kts
26-Jun-19 18:23 37.723423 -120.211782 258 34939ft 379kts
26-Jun-19 18:24 37.706879 -120.343220 258 32475ft 378kts
26-Jun-19 18:25 37.690468 -120.476475 259 29839ft 383kts
26-Jun-19 18:26 37.675399 -120.608147 258 27334ft 375kts
26-Jun-19 18:28 37.660112 -120.737368 259 24902ft 366kts
26-Jun-19 18:29 37.645193 -120.861397 258 22864ft 353kts
26-Jun-19 18:30 37.630207 -120.984711 258 20564ft 353kts
26-Jun-19 18:31 37.613840 -121.105689 257 18472ft 348kts
26-Jun-19 18:32 37.597795 -121.225288 257 16414ft 343kts
26-Jun-19 18:33 37.583838 -121.340173 259 14954ft 323kts
26-Jun-19 18:34 37.570883 -121.452036 258 13098ft 318kts
26-Jun-19 18:35 37.558359 -121.560183 259 11451ft 307kts
26-Jun-19 18:36 37.543247 -121.658510 250 10394ft 276kts
26-Jun-19 18:37 37.521009 -121.749119 251 9020ft 259kts
26-Jun-19 18:38 37.501115 -121.832244 251 7774ft 246kts
26-Jun-19 18:39 37.480941 -121.912717 250 6624ft 229kts
26-Jun-19 18:40 37.462023 -121.988381 264 5938ft 236kts
26-Jun-19 18:41 37.486651 -122.060896 294 5157ft 213kts
26-Jun-19 18:42 37.513054 -122.123546 294 4114ft 192kts
26-Jun-19 18:43 37.536964 -122.180403 294 3142ft 179kts
26-Jun-19 18:44 37.559021 -122.232803 294 2267ft 146kts
26-Jun-19 18:45 37.576066 -122.273413 294 1552ft 125kts
26-Jun-19 18:45 37.589608 -122.305501 295 977ft 121kts
26-Jun-19 18:47 37.607817 -122.348974 295 235ft 120kts
26-Jun-19 18:48 37.619490 -122.376830 298 27ft 40kts
26-Jun-19 18:48 37.619144 -122.380781 292 27ft 11kts
26-Jun-19 18:49 37.620873 -122.384914 299 27ft 15kts
26-Jun-19 18:51 37.622085 -122.391132 218 27ft 16kts
26-Jun-19 18:51 37.619713 -122.394724 246 27ft 17kts
26-Jun-19 18:52 37.616911 -122.392712 116 27ft 9kts
26-Jun-19 18:54 37.617409 -122.391774 27 27ft 0kts
26-Jun-19 18:54 37.617489 -122.391722 26 27ft 0kts
26-Jun-19 18:55 37.617489 -122.391722 26 27ft 0kts
26-Jun-19 18:56 37.617489 -122.391722 26 27ft 0kts
26-Jun-19 18:57 37.617489 -122.391722 26 27ft 0kts
26-Jun-19 18:58 37.617489 -122.391722 26 27ft 0kts
26-Jun-19 18:59 37.617489 -122.391722 26 27ft 0kts
26-Jun-19 19:00 37.617489 -122.391722 26 27ft 0kts
26-Jun-19 19:01 37.617489 -122.391722 26 27ft 0kts

Navigation Log

Ident Type
Flight plan parsing failed, navigation log unavailable